Time;durP1;ratioP1;P1;durP2;ratioP2;P2;SDS_P1;SDS_P2;PMS_P1;PMS_P2;Temp;Humidity;BMP_temperature;BMP_pressure;BME280_temperature;BME280_humidity;BME280_pressure;Samples;Min_cycle;Max_cycle;Signal;HPM_P1;HPM_P2
2022/04/23 00:01:09;;;;;;;44.70;17.80;;;;;;;1.01;96.33;98795.40;103487;1303;24289;-28
2022/04/23 00:03:38;;;;;;;41.00;17.20;;;;;;;0.87;97.85;98799.92;103424;1303;24211;-25
2022/04/23 00:06:07;;;;;;;36.80;15.00;;;;;;;0.79;99.21;98799.30;103480;1303;23637;-26
2022/04/23 00:08:36;;;;;;;23.00;10.90;;;;;;;0.76;98.86;98791.98;103506;1303;22789;-26
2022/04/23 00:11:05;;;;;;;40.60;17.70;;;;;;;0.71;99.70;98790.48;103454;1301;22606;-25
2022/04/23 00:13:34;;;;;;;38.60;16.10;;;;;;;0.67;99.94;98796.38;103527;1303;22511;-27
2022/04/23 00:16:03;;;;;;;24.00;11.60;;;;;;;0.66;99.94;98796.96;103418;1303;24211;-25
2022/04/23 00:18:32;;;;;;;25.60;11.40;;;;;;;0.64;100.00;98797.17;103349;1303;23890;-25
2022/04/23 00:21:01;;;;;;;29.70;14.20;;;;;;;0.66;100.00;98802.08;103382;1302;23599;-25
2022/04/23 00:23:31;;;;;;;29.20;14.60;;;;;;;0.61;100.00;98800.27;103484;1303;24217;-26
2022/04/23 00:26:01;;;;;;;31.90;14.30;;;;;;;0.56;100.00;98800.29;103414;1303;25132;-26
2022/04/23 00:28:29;;;;;;;36.70;14.50;;;;;;;0.51;100.00;98798.31;103486;1303;24973;-28
2022/04/23 00:30:58;;;;;;;21.70;10.00;;;;;;;0.44;99.99;98805.40;103493;1303;25011;-26
2022/04/23 00:33:27;;;;;;;25.40;12.80;;;;;;;0.36;99.03;98804.77;103479;1303;22647;-28
2022/04/23 00:35:57;;;;;;;41.40;17.10;;;;;;;0.29;98.79;98802.30;103447;1303;24218;-28
2022/04/23 00:38:26;;;;;;;39.80;17.00;;;;;;;0.28;99.97;98799.48;103447;1303;25393;-24
2022/04/23 00:40:55;;;;;;;37.50;17.00;;;;;;;0.26;100.00;98796.92;103435;1303;23811;-25
2022/04/23 00:43:25;;;;;;;31.50;15.20;;;;;;;0.25;100.00;98794.40;103378;1302;22502;-25
2022/04/23 00:45:55;;;;;;;36.80;15.80;;;;;;;0.27;100.00;98792.11;103391;1302;25228;-28
2022/04/23 00:48:26;;;;;;;26.30;14.10;;;;;;;0.29;100.00;98789.44;103375;1303;23788;-28
2022/04/23 00:50:56;;;;;;;23.80;10.70;;;;;;;0.25;100.00;98793.89;103464;1303;24215;-28
2022/04/23 00:53:25;;;;;;;21.40;12.30;;;;;;;0.18;100.00;98795.92;103455;1303;24921;-25
2022/04/23 00:55:54;;;;;;;34.60;11.30;;;;;;;0.15;100.00;98789.08;103421;1303;22974;-25
2022/04/23 00:58:23;;;;;;;26.30;11.00;;;;;;;0.14;100.00;98791.45;103488;1303;23817;-27
2022/04/23 01:00:52;;;;;;;22.40;12.90;;;;;;;0.09;100.00;98788.02;103476;1303;23599;-25
2022/04/23 01:03:22;;;;;;;25.90;13.60;;;;;;;0.01;100.00;98786.30;103469;1303;23878;-26
2022/04/23 01:05:51;;;;;;;29.70;13.90;;;;;;;-0.03;100.00;98784.42;103430;1303;22502;-25
2022/04/23 01:08:20;;;;;;;30.60;14.60;;;;;;;-0.01;100.00;98790.66;103365;1303;22496;-25
2022/04/23 01:10:49;;;;;;;26.10;13.70;;;;;;;-0.02;100.00;98786.58;103506;1303;24247;-30
2022/04/23 01:13:18;;;;;;;27.70;11.40;;;;;;;0.00;100.00;98783.02;103463;1303;23527;-28
2022/04/23 01:15:54;;;;;;;18.60;10.30;;;;;;;0.01;100.00;98784.09;103505;1303;23603;-29
2022/04/23 01:18:23;;;;;;;22.00;11.40;;;;;;;-0.01;100.00;98782.05;103414;1303;22738;-29
2022/04/23 01:20:54;;;;;;;30.10;13.10;;;;;;;-0.03;100.00;98779.58;103347;1303;24212;-28
2022/04/23 01:23:23;;;;;;;31.70;13.70;;;;;;;-0.07;100.00;98782.79;103460;1302;22810;-25
2022/04/23 01:25:54;;;;;;;26.90;14.30;;;;;;;-0.13;100.00;98783.04;103461;1303;25101;-25
2022/04/23 01:28:24;;;;;;;32.00;14.40;;;;;;;-0.14;100.00;98782.45;103388;1303;24302;-27
2022/04/23 01:30:54;;;;;;;38.60;15.50;;;;;;;-0.15;100.00;98779.52;103424;1303;25005;-24
2022/04/23 01:33:23;;;;;;;34.80;16.50;;;;;;;-0.12;100.00;98777.11;103472;1303;23794;-25
2022/04/23 01:35:52;;;;;;;38.00;16.80;;;;;;;-0.08;100.00;98778.84;103430;1303;22819;-29
2022/04/23 01:38:21;;;;;;;34.10;14.50;;;;;;;-0.05;100.00;98778.20;103422;1302;23753;-28
2022/04/23 01:40:50;;;;;;;33.30;15.90;;;;;;;0.02;100.00;98777.10;103461;1303;23914;-26
2022/04/23 01:43:19;;;;;;;31.10;14.20;;;;;;;0.04;100.00;98776.71;103424;1303;22911;-24
2022/04/23 01:45:48;;;;;;;34.10;14.60;;;;;;;0.06;100.00;98776.69;103439;1303;24262;-25
2022/04/23 01:48:16;;;;;;;26.00;14.90;;;;;;;0.06;100.00;98778.47;103441;1303;23993;-31
2022/04/23 01:50:45;;;;;;;34.10;15.60;;;;;;;0.04;100.00;98779.36;103427;1303;23590;-25
2022/04/23 01:53:14;;;;;;;35.20;15.20;;;;;;;0.00;100.00;98770.91;103435;1303;23841;-29
2022/04/23 01:55:44;;;;;;;29.00;13.10;;;;;;;-0.04;100.00;98770.73;103505;1303;24355;-26
2022/04/23 01:58:13;;;;;;;24.10;13.20;;;;;;;-0.07;100.00;98766.81;103519;1303;22503;-25
2022/04/23 02:00:41;;;;;;;30.70;16.20;;;;;;;-0.06;100.00;98769.67;103323;1303;24311;-26
2022/04/23 02:03:10;;;;;;;27.80;15.30;;;;;;;-0.05;100.00;98767.67;103499;1303;24301;-30
2022/04/23 02:05:39;;;;;;;27.70;10.90;;;;;;;-0.08;100.00;98766.02;103441;1302;24252;-28
2022/04/23 02:08:09;;;;;;;36.00;10.60;;;;;;;-0.11;100.00;98764.05;103474;1303;23917;-26
2022/04/23 02:10:38;;;;;;;23.00;9.30;;;;;;;-0.21;100.00;98760.55;103456;1303;22502;-28
2022/04/23 02:13:07;;;;;;;26.20;11.10;;;;;;;-0.25;100.00;98758.67;103425;1303;23755;-26
2022/04/23 02:15:36;;;;;;;16.20;7.70;;;;;;;-0.28;100.00;98761.05;103443;1302;22583;-27
2022/04/23 02:18:05;;;;;;;25.10;9.70;;;;;;;-0.28;100.00;98762.07;103456;1303;22499;-29
2022/04/23 02:20:35;;;;;;;24.90;11.30;;;;;;;-0.40;100.00;98762.20;103419;1303;22953;-25
2022/04/23 02:23:04;;;;;;;19.00;9.90;;;;;;;-0.50;100.00;98764.13;103360;1303;25087;-28
2022/04/23 02:25:34;;;;;;;14.70;9.40;;;;;;;-0.52;100.00;98762.45;103465;1303;23619;-26
2022/04/23 02:28:03;;;;;;;17.40;8.40;;;;;;;-0.59;100.00;98766.55;103475;1303;24321;-25
2022/04/23 02:30:32;;;;;;;17.10;9.70;;;;;;;-0.60;100.00;98771.20;103454;1303;24236;-26
2022/04/23 02:33:01;;;;;;;30.60;11.10;;;;;;;-0.61;100.00;98771.65;103483;1303;22767;-30
2022/04/23 02:35:34;;;;;;;18.20;10.80;;;;;;;-0.68;100.00;98772.37;103458;1303;22753;-29
2022/04/23 02:38:03;;;;;;;21.30;9.30;;;;;;;-0.72;100.00;98769.19;103445;1303;24971;-25
2022/04/23 02:40:32;;;;;;;15.60;9.50;;;;;;;-0.70;100.00;98767.40;103383;1303;22620;-25
2022/04/23 02:43:03;;;;;;;19.70;8.60;;;;;;;-0.66;100.00;98764.95;103365;1303;26022;-25
2022/04/23 02:45:34;;;;;;;17.20;9.50;;;;;;;-0.67;100.00;98768.40;103452;1303;23616;-28
2022/04/23 02:48:03;;;;;;;20.00;9.60;;;;;;;-0.78;100.00;98775.52;103397;1303;23796;-25
2022/04/23 02:50:35;;;;;;;19.50;8.50;;;;;;;-0.89;100.00;98779.30;103499;1303;23862;-27
2022/04/23 02:53:05;;;;;;;23.10;11.00;;;;;;;-0.96;100.00;98776.27;103413;1303;23518;-27
2022/04/23 02:55:35;;;;;;;14.30;8.90;;;;;;;-0.98;100.00;98777.44;103461;1303;24215;-24
2022/04/23 02:58:07;;;;;;;16.30;8.50;;;;;;;-0.97;100.00;98780.77;103478;1303;24977;-25
2022/04/23 03:00:39;;;;;;;18.60;10.10;;;;;;;-0.97;100.00;98781.08;103532;1302;22761;-25
2022/04/23 03:03:09;;;;;;;26.10;10.20;;;;;;;-0.91;100.00;98783.92;103470;1303;25107;-25
2022/04/23 03:05:41;;;;;;;24.00;10.50;;;;;;;-0.89;99.99;98779.15;103450;1303;23608;-25
2022/04/23 03:08:12;;;;;;;19.40;9.70;;;;;;;-0.93;99.93;98778.33;103365;1303;23814;-25
2022/04/23 03:10:41;;;;;;;14.20;8.80;;;;;;;-1.03;100.00;98777.73;103440;1303;22489;-28
2022/04/23 03:13:10;;;;;;;17.00;9.90;;;;;;;-0.97;100.00;98776.19;103431;1303;23172;-25
2022/04/23 03:15:39;;;;;;;22.80;9.90;;;;;;;-0.96;99.99;98777.44;103496;1303;22498;-25
2022/04/23 03:18:10;;;;;;;21.20;10.10;;;;;;;-0.87;100.00;98775.48;103443;1303;23439;-30
2022/04/23 03:20:40;;;;;;;16.30;10.00;;;;;;;-0.89;100.00;98776.48;103470;1303;23799;-25
2022/04/23 03:23:11;;;;;;;18.20;10.80;;;;;;;-0.88;100.00;98780.10;103495;1303;22495;-28
2022/04/23 03:25:41;;;;;;;21.50;11.30;;;;;;;-0.99;100.00;98780.08;103469;1303;26329;-25
2022/04/23 03:28:13;;;;;;;28.80;12.70;;;;;;;-1.05;100.00;98778.80;103470;1303;23794;-25
2022/04/23 03:30:44;;;;;;;20.40;10.90;;;;;;;-1.00;100.00;98782.04;103457;1303;25092;-25
2022/04/23 03:33:13;;;;;;;24.80;13.10;;;;;;;-0.89;100.00;98785.28;103471;1303;25349;-28
2022/04/23 03:35:42;;;;;;;35.50;14.20;;;;;;;-0.89;100.00;98786.23;103438;1303;23669;-25
2022/04/23 03:38:11;;;;;;;32.50;14.80;;;;;;;-0.96;100.00;98786.40;103456;1303;25037;-28
2022/04/23 03:40:41;;;;;;;43.20;15.00;;;;;;;-0.90;100.00;98785.05;103449;1303;22499;-29
2022/04/23 03:43:10;;;;;;;30.40;13.70;;;;;;;-0.96;100.00;98787.17;103298;1303;23901;-29
2022/04/23 03:45:39;;;;;;;27.10;13.30;;;;;;;-0.96;100.00;98792.41;103462;1303;24244;-28
2022/04/23 03:48:08;;;;;;;20.20;11.00;;;;;;;-0.93;100.00;98790.43;103474;1303;24270;-26
2022/04/23 03:50:38;;;;;;;34.20;12.30;;;;;;;-0.90;100.00;98789.62;103423;1303;25021;-26
2022/04/23 03:53:08;;;;;;;28.30;14.40;;;;;;;-0.85;100.00;98792.64;103475;1303;25149;-25
2022/04/23 03:55:37;;;;;;;33.50;12.20;;;;;;;-0.79;100.00;98798.25;103458;1303;24313;-25
2022/04/23 03:58:07;;;;;;;32.90;13.80;;;;;;;-0.73;100.00;98798.60;103520;1303;22789;-25
2022/04/23 04:00:36;;;;;;;21.60;10.50;;;;;;;-0.72;100.00;98799.35;103455;1303;22626;-30
2022/04/23 04:03:05;;;;;;;26.00;11.70;;;;;;;-0.73;100.00;98802.27;103411;1303;22507;-31
2022/04/23 04:05:34;;;;;;;24.60;12.40;;;;;;;-0.73;100.00;98803.38;103467;1302;23784;-30
2022/04/23 04:08:03;;;;;;;27.80;11.70;;;;;;;-0.76;100.00;98805.20;103401;1303;24355;-29
2022/04/23 04:10:32;;;;;;;17.50;10.00;;;;;;;-0.76;100.00;98803.23;103421;1303;23795;-26
2022/04/23 04:13:02;;;;;;;25.70;10.60;;;;;;;-0.72;100.00;98807.85;103410;1303;22957;-26
2022/04/23 04:15:31;;;;;;;17.10;7.80;;;;;;;-0.67;100.00;98801.60;103058;1303;493977;-29
2022/04/23 04:18:01;;;;;;;14.30;9.70;;;;;;;-0.78;100.00;98807.18;103432;1303;24261;-28
2022/04/23 04:20:32;;;;;;;17.50;9.20;;;;;;;-0.74;100.00;98806.11;103439;1303;22517;-26
2022/04/23 04:23:01;;;;;;;16.90;8.60;;;;;;;-0.67;100.00;98808.95;103422;1303;26131;-30
2022/04/23 04:25:30;;;;;;;19.90;10.80;;;;;;;-0.65;100.00;98803.20;103463;1303;24220;-23
2022/04/23 04:28:00;;;;;;;28.80;11.40;;;;;;;-0.70;100.00;98802.95;103453;1303;22503;-27
2022/04/23 04:31:46;;;;;;;18.40;10.40;;;;;;;-0.58;100.00;98800.43;103410;1303;24234;-25
2022/04/23 04:33:18;;;;;;;21.00;11.20;;;;;;;-0.37;100.00;98799.57;103410;1303;23739;-25
2022/04/23 04:35:47;;;;;;;31.40;12.50;;;;;;;-0.11;100.00;98804.50;103515;1303;24237;-27
2022/04/23 04:38:16;;;;;;;18.70;9.50;;;;;;;0.15;100.00;98807.34;103463;1303;22865;-28
2022/04/23 04:40:46;;;;;;;22.20;11.20;;;;;;;0.39;100.00;98811.08;103411;1303;24226;-27
2022/04/23 04:43:15;;;;;;;17.90;10.10;;;;;;;0.76;100.00;98811.23;103472;1303;25232;-24
2022/04/23 04:45:45;;;;;;;25.00;11.50;;;;;;;1.11;100.00;98808.27;103448;1303;22510;-28
2022/04/23 04:48:15;;;;;;;20.80;11.70;;;;;;;1.49;100.00;98806.67;103260;1303;25120;-28
2022/04/23 04:50:44;;;;;;;20.30;10.60;;;;;;;1.71;99.64;98809.02;103464;1303;25025;-25
2022/04/23 04:53:13;;;;;;;36.70;16.30;;;;;;;1.91;99.21;98811.09;103450;1303;24251;-23
2022/04/23 04:55:42;;;;;;;22.20;11.50;;;;;;;2.02;98.55;98812.05;103458;1303;24246;-26
2022/04/23 04:58:11;;;;;;;18.90;10.20;;;;;;;2.02;97.71;98812.28;103415;1303;24233;-26
2022/04/23 05:00:40;;;;;;;20.80;11.10;;;;;;;2.03;97.16;98814.24;103499;1303;22726;-27
2022/04/23 05:03:08;;;;;;;16.80;10.40;;;;;;;2.05;96.24;98818.48;103426;1303;24336;-26
2022/04/23 05:05:39;;;;;;;16.50;9.20;;;;;;;2.20;95.99;98814.82;103412;1303;22499;-29
2022/04/23 05:08:08;;;;;;;16.60;9.70;;;;;;;2.32;95.48;98810.23;103435;1303;24244;-28
2022/04/23 05:10:37;;;;;;;17.50;9.40;;;;;;;2.40;94.14;98809.56;103428;1303;24025;-28
2022/04/23 05:13:06;;;;;;;26.10;10.00;;;;;;;2.40;94.35;98808.17;103458;1303;24970;-26
2022/04/23 05:15:35;;;;;;;20.80;12.90;;;;;;;2.49;94.15;98807.39;103434;1303;24989;-24
2022/04/23 05:18:04;;;;;;;21.90;10.80;;;;;;;2.67;93.37;98811.86;103413;1302;22499;-28
2022/04/23 05:20:33;;;;;;;20.70;10.80;;;;;;;2.64;92.86;98813.77;103341;1303;23452;-25
2022/04/23 05:23:02;;;;;;;25.10;15.00;;;;;;;2.89;93.47;98811.33;103385;1303;23975;-28
2022/04/23 05:25:31;;;;;;;25.80;14.00;;;;;;;3.06;92.33;98817.33;103317;1303;24458;-24
2022/04/23 05:28:01;;;;;;;27.10;14.10;;;;;;;3.18;92.26;98818.86;103471;1303;23374;-28
2022/04/23 05:30:30;;;;;;;33.30;14.80;;;;;;;3.41;92.74;98813.77;103542;1303;23931;-25
2022/04/23 05:32:59;;;;;;;24.00;13.50;;;;;;;3.55;92.77;98816.83;103423;1303;25022;-24
2022/04/23 05:35:27;;;;;;;20.30;11.80;;;;;;;3.80;92.75;98812.86;103509;1303;22505;-26
2022/04/23 05:37:56;;;;;;;18.60;13.70;;;;;;;4.12;92.06;98814.90;103456;1303;24246;-28
2022/04/23 05:40:25;;;;;;;19.60;13.60;;;;;;;4.28;91.35;98814.86;103433;1303;24986;-28
2022/04/23 05:42:58;;;;;;;22.90;13.50;;;;;;;4.40;90.70;98817.41;103438;1303;22659;-31
2022/04/23 05:45:28;;;;;;;14.40;10.70;;;;;;;4.58;90.71;98816.65;103412;1303;22581;-28
2022/04/23 05:47:57;;;;;;;16.20;10.40;;;;;;;4.70;89.31;98822.36;103521;1303;23539;-23
2022/04/23 05:50:26;;;;;;;16.60;11.40;;;;;;;4.81;89.01;98818.35;103435;1303;22768;-24
2022/04/23 05:52:55;;;;;;;13.90;9.60;;;;;;;4.87;88.39;98815.08;103454;1303;22783;-29
2022/04/23 05:55:24;;;;;;;17.40;11.80;;;;;;;4.92;87.99;98819.73;103463;1303;24240;-29
2022/04/23 05:57:53;;;;;;;21.50;12.30;;;;;;;5.10;87.72;98820.21;103449;1303;24253;-26
2022/04/23 06:00:22;;;;;;;18.00;11.20;;;;;;;5.23;86.79;98822.20;103434;1303;23895;-25
2022/04/23 06:02:51;;;;;;;22.00;12.40;;;;;;;5.25;86.93;98816.48;103382;1303;24372;-25
2022/04/23 06:05:20;;;;;;;23.10;13.90;;;;;;;5.32;87.58;98812.33;103490;1303;24289;-25
2022/04/23 06:07:49;;;;;;;19.60;12.90;;;;;;;5.60;87.11;98811.38;103222;1303;23919;-25
2022/04/23 06:10:18;;;;;;;18.60;12.60;;;;;;;5.82;86.35;98807.48;103458;1303;24215;-26
2022/04/23 06:12:47;;;;;;;21.60;13.40;;;;;;;5.83;86.23;98808.19;103486;1303;22514;-29
2022/04/23 06:15:16;;;;;;;25.70;15.50;;;;;;;5.92;85.75;98812.16;103397;1303;24378;-29
2022/04/23 06:17:45;;;;;;;20.30;11.30;;;;;;;6.11;84.87;98814.94;103380;1303;24364;-29
2022/04/23 06:20:15;;;;;;;19.70;11.80;;;;;;;6.44;84.84;98817.41;103407;1303;24198;-29
2022/04/23 06:22:43;;;;;;;24.10;15.10;;;;;;;6.58;82.91;98821.76;103410;1303;22901;-25
2022/04/23 06:25:12;;;;;;;23.20;12.80;;;;;;;6.36;84.41;98819.84;103468;1303;23767;-25
2022/04/23 06:27:41;;;;;;;18.40;12.80;;;;;;;6.68;85.90;98815.05;103412;1303;24310;-30
2022/04/23 06:30:10;;;;;;;16.90;11.50;;;;;;;7.15;85.04;98811.80;103521;1303;22503;-25
2022/04/23 06:32:39;;;;;;;25.30;13.50;;;;;;;7.53;84.28;98806.97;103508;1303;23062;-25
2022/04/23 06:35:09;;;;;;;20.20;13.30;;;;;;;7.81;83.61;98807.90;103513;1303;24310;-30
2022/04/23 06:37:40;;;;;;;22.70;13.60;;;;;;;8.02;82.60;98814.30;103433;1303;22502;-27
2022/04/23 06:40:11;;;;;;;18.10;11.60;;;;;;;8.01;80.26;98814.95;103319;1303;22848;-30
2022/04/23 06:42:40;;;;;;;19.80;12.70;;;;;;;7.99;78.29;98814.84;103475;1303;24287;-25
2022/04/23 06:45:09;;;;;;;18.40;12.70;;;;;;;8.43;78.46;98817.65;103506;1303;24205;-26
2022/04/23 06:47:39;;;;;;;22.30;13.20;;;;;;;8.87;78.11;98817.42;103451;1303;24240;-25
2022/04/23 06:50:08;;;;;;;21.10;13.20;;;;;;;9.25;76.61;98812.13;103456;1303;22622;-26
2022/04/23 06:52:37;;;;;;;19.30;11.80;;;;;;;9.12;75.14;98815.84;103418;1303;22967;-30
2022/04/23 06:55:07;;;;;;;19.00;12.90;;;;;;;9.19;75.45;98816.31;103478;1303;22496;-29
2022/04/23 06:57:44;;;;;;;31.30;12.00;;;;;;;9.12;74.93;98817.08;103454;1303;23612;-25
2022/04/23 07:00:13;;;;;;;18.40;10.50;;;;;;;9.31;73.52;98814.81;103429;1303;25121;-27
2022/04/23 07:02:42;;;;;;;14.50;11.70;;;;;;;9.37;73.61;98814.46;103278;1303;24349;-24
2022/04/23 07:05:11;;;;;;;18.90;12.30;;;;;;;9.55;72.59;98812.11;103329;1306;24608;-27
2022/04/23 07:07:40;;;;;;;17.00;12.40;;;;;;;9.72;71.15;98810.88;103453;1302;22505;-25
2022/04/23 07:10:09;;;;;;;15.40;11.10;;;;;;;9.65;70.80;98808.27;103477;1303;24272;-25
2022/04/23 07:12:39;;;;;;;16.90;11.40;;;;;;;9.48;72.32;98805.52;103441;1303;25116;-25
2022/04/23 07:15:08;;;;;;;20.30;10.80;;;;;;;10.00;70.91;98803.36;103449;1303;25325;-29
2022/04/23 07:17:37;;;;;;;15.10;10.30;;;;;;;10.18;69.62;98800.38;103482;1302;22535;-25
2022/04/23 07:20:07;;;;;;;12.60;9.10;;;;;;;10.69;69.59;98802.80;103488;1303;24196;-29
2022/04/23 07:22:36;;;;;;;17.30;10.60;;;;;;;10.74;68.13;98801.05;103430;1303;24214;-29
2022/04/23 07:25:08;;;;;;;14.30;10.40;;;;;;;11.01;67.55;98796.60;103460;1303;23740;-27
2022/04/23 07:27:37;;;;;;;18.10;9.40;;;;;;;10.63;66.20;98794.45;103508;1303;24996;-27
2022/04/23 07:30:07;;;;;;;11.60;8.20;;;;;;;10.84;66.09;98793.61;103449;1303;22500;-27
2022/04/23 07:32:36;;;;;;;12.30;6.40;;;;;;;11.22;63.82;98788.14;103416;1303;24282;-28
2022/04/23 07:37:37;;;;;;;7.90;6.00;;;;;;;11.11;62.49;98785.84;103453;1303;22499;-29
2022/04/23 07:40:10;;;;;;;8.10;6.30;;;;;;;11.66;62.28;98788.39;103501;1303;24383;-25
2022/04/23 07:42:39;;;;;;;6.70;5.90;;;;;;;11.97;61.03;98786.90;103418;1303;24249;-29
2022/04/23 07:45:10;;;;;;;8.40;5.80;;;;;;;11.65;58.68;98790.05;103436;1303;24257;-25
2022/04/23 07:47:40;;;;;;;7.60;5.40;;;;;;;12.35;60.02;98788.22;103361;1304;22830;-28
2022/04/23 07:50:09;;;;;;;8.70;6.30;;;;;;;12.38;59.82;98787.79;103391;1303;22509;-25
2022/04/23 07:52:38;;;;;;;6.60;5.80;;;;;;;12.98;60.65;98787.66;103282;1303;25155;-29
2022/04/23 07:55:08;;;;;;;7.00;5.20;;;;;;;12.86;56.65;98785.29;103420;1303;23806;-29
2022/04/23 07:57:37;;;;;;;10.40;7.40;;;;;;;13.15;57.04;98783.41;103476;1303;23790;-30
2022/04/23 08:00:07;;;;;;;8.00;7.30;;;;;;;13.41;56.01;98780.14;103427;1303;22499;-29
2022/04/23 08:02:36;;;;;;;8.70;7.40;;;;;;;13.02;56.79;98781.15;103457;1303;25216;-28
2022/04/23 08:05:06;;;;;;;9.40;6.40;;;;;;;13.06;56.06;98775.08;103413;1303;24255;-28
2022/04/23 08:07:35;;;;;;;6.00;5.50;;;;;;;12.73;57.47;98772.96;103415;1303;25111;-30
2022/04/23 08:10:06;;;;;;;7.10;6.10;;;;;;;12.92;57.93;98773.40;103436;1303;22515;-29
2022/04/23 08:12:36;;;;;;;4.80;4.30;;;;;;;13.03;57.16;98769.55;103449;1303;22762;-29
2022/04/23 08:15:05;;;;;;;6.30;5.50;;;;;;;13.59;56.85;98768.65;103468;1303;22911;-25
2022/04/23 08:17:34;;;;;;;6.70;6.00;;;;;;;13.77;55.91;98766.84;103469;1303;25076;-30
2022/04/23 08:20:04;;;;;;;7.90;6.70;;;;;;;13.56;56.42;98767.09;103438;1303;23482;-29
2022/04/23 08:22:34;;;;;;;7.00;6.10;;;;;;;13.63;56.04;98763.70;103437;1303;25344;-28
2022/04/23 08:25:03;;;;;;;7.20;6.40;;;;;;;14.13;56.64;98754.26;103424;1303;23609;-28
2022/04/23 08:27:39;;;;;;;5.50;4.90;;;;;;;14.51;54.16;98751.27;103408;1303;25162;-25
2022/04/23 08:32:41;;;;;;;4.40;3.50;;;;;;;14.27;52.21;98748.47;103457;1303;23808;-30
2022/04/23 08:35:10;;;;;;;5.40;4.90;;;;;;;14.65;52.41;98745.55;103419;1303;23607;-28
2022/04/23 08:37:39;;;;;;;12.50;4.70;;;;;;;15.06;51.53;98739.13;103398;1303;24443;-28
2022/04/23 08:40:10;;;;;;;5.00;4.60;;;;;;;15.09;50.14;98737.01;103408;1303;25006;-29
2022/04/23 08:42:39;;;;;;;4.10;3.70;;;;;;;14.96;48.95;98735.73;103367;1304;25269;-25
2022/04/23 08:45:10;;;;;;;3.90;2.90;;;;;;;15.01;48.40;98734.49;103460;1303;24401;-28
2022/04/23 08:47:45;;;;;;;3.20;2.90;;;;;;;14.41;47.67;98739.80;103414;1303;25404;-24
2022/04/23 08:50:14;;;;;;;4.40;3.70;;;;;;;14.61;47.06;98739.98;103424;1303;23945;-28
2022/04/23 08:52:43;;;;;;;4.50;4.00;;;;;;;14.89;48.58;98741.60;103431;1303;23599;-24
2022/04/23 08:55:14;;;;;;;4.50;4.10;;;;;;;15.04;47.97;98738.54;103403;1303;24013;-29
2022/04/23 08:57:43;;;;;;;4.90;4.30;;;;;;;15.49;48.14;98731.61;103445;1303;23800;-29
2022/04/23 09:00:14;;;;;;;5.20;4.30;;;;;;;15.19;46.66;98726.13;103468;1303;23646;-25
2022/04/23 09:02:43;;;;;;;5.70;5.10;;;;;;;15.16;46.86;98725.18;103353;1303;26291;-28
2022/04/23 09:05:13;;;;;;;4.90;4.10;;;;;;;15.20;46.77;98718.77;103476;1303;23627;-24
2022/04/23 09:07:49;;;;;;;5.80;4.70;;;;;;;15.30;47.05;98718.98;103347;1303;24239;-26
2022/04/23 09:10:19;;;;;;;6.60;4.40;;;;;;;15.49;46.80;98719.66;103386;1303;23969;-25
2022/04/23 09:12:52;;;;;;;4.90;4.50;;;;;;;15.30;46.75;98719.45;103438;1303;22659;-28
2022/04/23 09:25:35;;;;;;;4.30;3.00;;;;;;;16.06;45.74;98716.52;103479;1303;23510;-29
2022/04/23 09:28:14;;;;;;;4.20;3.80;;;;;;;15.31;44.57;98718.48;103345;1303;22952;-28
2022/04/23 09:30:44;;;;;;;5.00;3.50;;;;;;;15.89;45.97;98711.31;103299;1303;24252;-29
2022/04/23 09:33:14;;;;;;;5.30;4.70;;;;;;;16.32;44.44;98712.48;103464;1303;25324;-28
2022/04/23 09:35:49;;;;;;;9.60;5.20;;;;;;;16.52;43.49;98709.00;103447;1303;23789;-25
2022/04/23 09:38:18;;;;;;;4.80;4.40;;;;;;;17.03;44.05;98707.06;103441;1303;23682;-25
2022/04/23 09:40:51;;;;;;;6.20;4.90;;;;;;;17.13;43.94;98706.67;103442;1303;24292;-28
2022/04/23 09:43:24;;;;;;;4.00;3.30;;;;;;;17.32;42.95;98703.05;103475;1303;23590;-25
2022/04/23 09:45:59;;;;;;;5.30;4.50;;;;;;;16.95;41.29;98706.95;103531;1303;24230;-29
2022/04/23 09:48:29;;;;;;;4.80;3.80;;;;;;;17.20;42.85;98709.45;103431;1303;22509;-29
2022/04/23 09:50:58;;;;;;;5.20;4.60;;;;;;;17.72;41.99;98708.30;103500;1303;23605;-29
2022/04/23 09:53:28;;;;;;;5.20;4.80;;;;;;;17.61;41.20;98713.58;103473;1303;24466;-26
2022/04/23 09:55:59;;;;;;;3.20;2.90;;;;;;;17.65;41.10;98708.61;103355;1303;24254;-24
2022/04/23 09:58:29;;;;;;;5.20;4.50;;;;;;;17.39;41.39;98714.14;103464;1303;25343;-27
2022/04/23 10:00:59;;;;;;;5.60;4.20;;;;;;;16.95;42.19;98711.89;103421;1303;24985;-27
2022/04/23 10:03:30;;;;;;;6.30;5.70;;;;;;;16.58;42.40;98710.36;103443;1303;24269;-31
2022/04/23 10:06:00;;;;;;;12.30;4.20;;;;;;;16.22;43.77;98708.21;103485;1303;25351;-24
2022/04/23 10:08:30;;;;;;;11.00;4.30;;;;;;;17.32;42.96;98704.14;103416;1303;24307;-24
2022/04/23 10:11:05;;;;;;;5.50;4.90;;;;;;;17.42;41.00;98706.73;103557;1303;25393;-29
2022/04/23 10:13:34;;;;;;;5.80;4.40;;;;;;;17.47;41.65;98707.96;103444;1303;23785;-25
2022/04/23 10:16:04;;;;;;;6.00;5.40;;;;;;;17.37;42.50;98706.25;103440;1303;25343;-25
2022/04/23 10:18:38;;;;;;;5.30;4.60;;;;;;;17.97;42.26;98700.06;103443;1303;24325;-29
2022/04/23 10:21:08;;;;;;;6.60;5.30;;;;;;;17.98;41.75;98709.23;103429;1303;24292;-30
2022/04/23 10:23:46;;;;;;;4.70;4.30;;;;;;;18.04;41.59;98709.99;103381;1303;26185;-29
2022/04/23 10:26:29;;;;;;;9.90;5.20;;;;;;;17.88;40.48;98709.11;103460;1303;22521;-29
2022/04/23 10:28:58;;;;;;;5.30;4.90;;;;;;;17.33;41.56;98718.27;103401;1303;23737;-25
2022/04/23 10:31:27;;;;;;;9.80;5.10;;;;;;;16.56;42.38;98721.67;103443;1303;24244;-25
2022/04/23 10:33:56;;;;;;;6.90;4.80;;;;;;;15.84;43.51;98722.88;103194;1304;24318;-24
2022/04/23 10:36:25;;;;;;;6.60;5.30;;;;;;;15.76;44.31;98721.19;103481;1303;22504;-28
2022/04/23 10:39:01;;;;;;;6.70;5.80;;;;;;;16.24;43.35;98720.11;103445;1303;22514;-28
2022/04/23 10:41:30;;;;;;;6.00;5.20;;;;;;;15.91;44.03;98715.10;103465;1303;23603;-25
2022/04/23 10:44:00;;;;;;;6.80;6.30;;;;;;;16.20;44.28;98713.33;103483;1303;23554;-28
2022/04/23 10:46:36;;;;;;;5.70;5.00;;;;;;;16.13;43.77;98714.42;103491;1303;26179;-24
2022/04/23 10:49:13;;;;;;;12.50;6.10;;;;;;;15.55;45.03;98713.91;103457;1303;24993;-28
2022/04/23 10:51:49;;;;;;;5.80;4.50;;;;;;;15.52;45.87;98711.38;103429;1303;24999;-25
2022/04/23 10:54:21;;;;;;;7.00;5.00;;;;;;;15.64;45.35;98711.95;103422;1303;24426;-25
2022/04/23 10:56:51;;;;;;;8.10;6.20;;;;;;;15.27;45.79;98712.29;103289;1303;25327;-25
2022/04/23 10:59:27;;;;;;;25.90;11.30;;;;;;;15.41;46.40;98709.73;103409;1303;22879;-25
2022/04/23 11:02:05;;;;;;;6.40;5.70;;;;;;;16.11;46.16;98704.88;103459;1303;22796;-29
2022/04/23 11:04:34;;;;;;;4.50;4.10;;;;;;;16.56;45.16;98703.20;103459;1303;24413;-26
2022/04/23 11:12:18;;;;;;;8.90;5.50;;;;;;;17.40;42.54;98698.17;103453;1303;25153;-29
2022/04/23 11:14:48;;;;;;;5.50;5.00;;;;;;;17.69;42.31;98696.19;103440;1303;24505;-31
2022/04/23 11:17:22;;;;;;;3.90;3.20;;;;;;;18.50;41.71;98700.36;103433;1303;24233;-25
2022/04/23 11:19:52;;;;;;;3.10;2.90;;;;;;;18.92;40.39;98697.79;103406;1303;24874;-25
2022/04/23 11:22:23;;;;;;;3.50;3.20;;;;;;;18.49;39.19;98699.63;103434;1303;25853;-25
2022/04/23 11:24:53;;;;;;;4.00;3.70;;;;;;;18.18;40.53;98696.91;103356;1303;23739;-26
2022/04/23 11:27:25;;;;;;;4.00;3.70;;;;;;;17.91;40.80;98697.58;103416;1303;25366;-28
2022/04/23 11:29:54;;;;;;;6.00;4.00;;;;;;;17.18;41.45;98699.84;103460;1303;23414;-25
2022/04/23 11:32:25;;;;;;;4.30;3.90;;;;;;;17.01;42.62;98701.33;103390;1303;24983;-31
2022/04/23 11:34:55;;;;;;;5.50;5.00;;;;;;;17.48;41.96;98693.05;103480;1303;25314;-24
2022/04/23 11:37:29;;;;;;;4.30;3.60;;;;;;;17.52;41.39;98697.70;103423;1303;22506;-24
2022/04/23 11:40:04;;;;;;;4.50;3.20;;;;;;;17.62;40.56;98696.85;103434;1303;24249;-25
2022/04/23 11:42:36;;;;;;;5.00;4.50;;;;;;;17.73;40.98;98698.20;103445;1303;24986;-25
2022/04/23 11:45:06;;;;;;;5.60;3.70;;;;;;;18.26;40.17;98693.97;103443;1303;22647;-25
2022/04/23 11:47:35;;;;;;;4.20;3.80;;;;;;;18.72;40.46;98691.70;103457;1302;25053;-25